Time,TemperatureF,DewpointF,PressureIn,WindDirection,WindDirectionDegrees,WindSpeedMPH,WindSpeedGustMPH,Humidity,HourlyPrecipIn,Conditions,Clouds,dailyrainin,SoftwareType,DateUTC
2013-06-23 00:12:00,43.0,27.0,-100.00,North,0,0.0,0.0,52,-99.99,,,-99.99,,2013-06-23 06:12:00,
2013-06-23 00:22:00,42.0,27.0,-100.00,NW,310,0.0,0.0,54,-99.99,,,-99.99,,2013-06-23 06:22:00,
2013-06-23 00:33:00,42.0,27.0,-100.00,NW,310,0.0,0.0,54,-99.99,,,-99.99,,2013-06-23 06:33:00,
2013-06-23 00:43:00,42.0,27.0,-100.00,NW,310,0.0,0.0,54,-99.99,,,-99.99,,2013-06-23 06:43:00,
2013-06-23 01:43:00,40.0,27.0,-100.00,SSW,193,0.0,0.0,60,-99.99,,,-99.99,,2013-06-23 07:43:00,
2013-06-23 01:53:00,40.0,25.0,-100.00,SSW,202,0.0,1.0,55,-99.99,,,-99.99,,2013-06-23 07:53:00,
2013-06-23 02:11:00,41.0,26.0,-100.00,North,0,0.0,0.0,55,-99.99,,,-99.99,,2013-06-23 08:11:00,
2013-06-23 02:22:00,41.0,27.0,-100.00,North,0,0.0,0.0,57,-99.99,,,-99.99,,2013-06-23 08:22:00,
2013-06-23 02:42:00,41.0,27.0,-100.00,North,0,0.0,0.0,58,-99.99,,,-99.99,,2013-06-23 08:42:00,
2013-06-23 02:53:00,41.0,27.0,-100.00,SSW,210,0.0,1.0,57,-99.99,,,-99.99,,2013-06-23 08:53:00,
2013-06-23 03:12:00,41.0,26.0,-100.00,SSW,207,1.0,3.0,54,-99.99,,,-99.99,,2013-06-23 09:12:00,
2013-06-23 03:43:00,42.0,27.0,-100.00,SSW,209,1.0,1.0,54,-99.99,,,-99.99,,2013-06-23 09:43:00,
2013-06-23 03:53:00,41.0,26.0,-100.00,SSW,210,1.0,1.0,54,-99.99,,,-99.99,,2013-06-23 09:53:00,
2013-06-23 04:02:00,42.0,27.0,-100.00,SSW,205,1.0,2.0,54,-99.99,,,-99.99,,2013-06-23 10:02:00,
2013-06-23 04:11:00,42.0,27.0,-100.00,SSW,205,1.0,2.0,54,-99.99,,,-99.99,,2013-06-23 10:11:00,
2013-06-23 04:22:00,42.0,26.0,-100.00,SSW,203,1.0,2.0,53,-99.99,,,-99.99,,2013-06-23 10:22:00,
2013-06-23 04:43:00,42.0,26.0,-100.00,SSW,199,0.0,1.0,52,-99.99,,,-99.99,,2013-06-23 10:43:00,
2013-06-23 04:52:00,42.0,25.0,-100.00,SW,216,0.0,1.0,51,-99.99,,,-99.99,,2013-06-23 10:52:00,
2013-06-23 05:11:00,41.0,23.0,-100.00,SSW,210,1.0,2.0,49,-99.99,,,-99.99,,2013-06-23 11:11:00,
2013-06-23 05:22:00,41.0,23.0,-100.00,SSW,211,1.0,1.0,49,-99.99,,,-99.99,,2013-06-23 11:22:00,
2013-06-23 05:33:00,42.0,24.0,-100.00,SSW,212,1.0,2.0,48,-99.99,,,-99.99,,2013-06-23 11:33:00,
2013-06-23 05:43:00,42.0,24.0,-100.00,SSW,212,1.0,2.0,48,-99.99,,,-99.99,,2013-06-23 11:43:00,
2013-06-23 05:53:00,43.0,24.0,-100.00,SSW,205,1.0,2.0,46,-99.99,,,-99.99,,2013-06-23 11:53:00,
2013-06-23 06:11:00,43.0,23.0,-100.00,SSW,200,1.0,2.0,45,-99.99,,,-99.99,,2013-06-23 12:11:00,
2013-06-23 06:22:00,43.0,22.0,-100.00,SSW,197,1.0,2.0,42,-99.99,,,-99.99,,2013-06-23 12:22:00,
2013-06-23 06:42:00,43.0,22.0,-100.00,South,186,1.0,1.0,43,-99.99,,,-99.99,,2013-06-23 12:42:00,
2013-06-23 06:53:00,44.0,22.0,-100.00,South,185,2.0,2.0,42,-99.99,,,-99.99,,2013-06-23 12:53:00,
2013-06-23 07:11:00,45.0,23.0,-100.00,South,190,2.0,3.0,42,-99.99,,,-99.99,,2013-06-23 13:11:00,
2013-06-23 07:43:00,45.0,25.0,-100.00,SSW,195,1.0,2.0,45,-99.99,,,-99.99,,2013-06-23 13:43:00,
2013-06-23 08:04:00,48.0,25.0,-100.00,South,181,2.0,3.0,40,-99.99,,,-99.99,,2013-06-23 14:04:00,
2013-06-23 08:11:00,49.0,25.0,-100.00,South,189,2.0,3.0,38,-99.99,,,-99.99,,2013-06-23 14:11:00,
2013-06-23 08:22:00,49.0,25.0,-100.00,South,189,2.0,3.0,38,-99.99,,,-99.99,,2013-06-23 14:22:00,
2013-06-23 08:44:00,52.0,28.0,-100.00,SSW,195,0.0,1.0,40,-99.99,,,-99.99,,2013-06-23 14:44:00,
2013-06-23 08:52:00,55.0,26.0,-100.00,WSW,255,0.0,2.0,33,-99.99,,,-99.99,,2013-06-23 14:52:00,
2013-06-23 09:11:00,57.0,30.0,-100.00,NE,54,0.0,2.0,36,-99.99,,,-99.99,,2013-06-23 15:11:00,
2013-06-23 09:22:00,57.0,31.0,-100.00,East,92,1.0,3.0,37,-99.99,,,-99.99,,2013-06-23 15:22:00,
2013-06-23 09:43:00,57.0,29.0,-100.00,SE,138,2.0,5.0,34,-99.99,,,-99.99,,2013-06-23 15:43:00,
2013-06-23 09:52:00,57.0,29.0,-100.00,SE,133,1.0,3.0,34,-99.99,,,-99.99,,2013-06-23 15:52:00,
2013-06-23 10:11:00,57.0,29.0,-100.00,ENE,75,1.0,3.0,34,-99.99,,,-99.99,,2013-06-23 16:11:00,
2013-06-23 10:22:00,57.0,29.0,-100.00,ENE,74,2.0,3.0,34,-99.99,,,-99.99,,2013-06-23 16:22:00,
2013-06-23 10:36:00,58.0,29.0,-100.00,East,96,2.0,4.0,33,-99.99,,,-99.99,,2013-06-23 16:36:00,
2013-06-23 10:42:00,58.0,29.0,-100.00,East,96,2.0,4.0,33,-99.99,,,-99.99,,2013-06-23 16:42:00,
2013-06-23 10:52:00,58.0,30.0,-100.00,ESE,120,2.0,3.0,34,-99.99,,,-99.99,,2013-06-23 16:52:00,
2013-06-23 11:11:00,59.0,30.0,-100.00,East,82,2.0,6.0,33,-99.99,,,-99.99,,2013-06-23 17:11:00,
2013-06-23 11:22:00,60.0,30.0,-100.00,NE,36,2.0,4.0,32,-99.99,,,-99.99,,2013-06-23 17:22:00,
2013-06-23 11:33:00,61.0,30.0,-100.00,ESE,115,1.0,3.0,31,-99.99,,,-99.99,,2013-06-23 17:33:00,
2013-06-23 11:43:00,61.0,30.0,-100.00,ESE,115,1.0,3.0,31,-99.99,,,-99.99,,2013-06-23 17:43:00,
2013-06-23 11:52:00,61.0,30.0,-100.00,East,101,2.0,5.0,31,-99.99,,,-99.99,,2013-06-23 17:52:00,
2013-06-23 12:11:00,62.0,30.0,-100.00,SE,125,2.0,4.0,30,-99.99,,,-99.99,,2013-06-23 18:11:00,
2013-06-23 12:22:00,62.0,31.0,-100.00,NE,55,2.0,7.0,31,-99.99,,,-99.99,,2013-06-23 18:22:00,
2013-06-23 12:34:00,62.0,30.0,-100.00,ENE,70,2.0,6.0,30,-99.99,,,-99.99,,2013-06-23 18:34:00,
2013-06-23 12:42:00,62.0,30.0,-100.00,ENE,70,2.0,6.0,30,-99.99,,,-99.99,,2013-06-23 18:42:00,
2013-06-23 12:53:00,64.0,32.0,-100.00,SE,134,2.0,5.0,30,-99.99,,,-99.99,,2013-06-23 18:53:00,
2013-06-23 13:11:00,64.0,32.0,-100.00,NE,45,2.0,5.0,30,-99.99,,,-99.99,,2013-06-23 19:11:00,
2013-06-23 13:21:00,64.0,32.0,-100.00,NE,45,2.0,5.0,30,-99.99,,,-99.99,,2013-06-23 19:21:00,
2013-06-23 13:43:00,65.0,33.0,-100.00,ESE,113,2.0,4.0,30,-99.99,,,-99.99,,2013-06-23 19:43:00,
2013-06-23 13:53:00,64.0,34.0,-100.00,East,82,2.0,6.0,32,-99.99,,,-99.99,,2013-06-23 19:53:00,
2013-06-23 14:11:00,66.0,35.0,-100.00,ESE,107,2.0,3.0,32,-99.99,,,-99.99,,2013-06-23 20:11:00,
2013-06-23 14:23:00,65.0,34.0,-100.00,SW,219,1.0,5.0,32,-99.99,,,-99.99,,2013-06-23 20:23:00,
2013-06-23 14:42:00,65.0,33.0,-100.00,North,357,2.0,6.0,30,-99.99,,,-99.99,,2013-06-23 20:42:00,
2013-06-23 14:52:00,66.0,34.0,-100.00,NW,321,4.0,11.0,30,-99.99,,,-99.99,,2013-06-23 20:52:00,
2013-06-23 15:11:00,68.0,32.0,-100.00,NNW,342,4.0,9.0,26,-99.99,,,-99.99,,2013-06-23 21:11:00,
2013-06-23 15:44:00,66.0,32.0,-100.00,East,83,1.0,4.0,28,-99.99,,,-99.99,,2013-06-23 21:44:00,
2013-06-23 15:52:00,66.0,33.0,-100.00,ENE,75,1.0,2.0,29,-99.99,,,-99.99,,2013-06-23 21:52:00,
2013-06-23 16:11:00,66.0,29.0,-100.00,North,10,2.0,5.0,25,-99.99,,,-99.99,,2013-06-23 22:11:00,
2013-06-23 16:32:00,68.0,29.0,-100.00,SE,138,2.0,5.0,23,-99.99,,,-99.99,,2013-06-23 22:32:00,
2013-06-23 16:43:00,68.0,29.0,-100.00,SE,138,2.0,5.0,23,-99.99,,,-99.99,,2013-06-23 22:43:00,
2013-06-23 16:53:00,69.0,31.0,-100.00,ESE,119,2.0,4.0,24,-99.99,,,-99.99,,2013-06-23 22:53:00,
2013-06-23 17:11:00,68.0,30.0,-100.00,NW,312,2.0,7.0,24,-99.99,,,-99.99,,2013-06-23 23:11:00,
2013-06-23 17:22:00,67.0,30.0,-100.00,NNW,337,2.0,6.0,25,-99.99,,,-99.99,,2013-06-23 23:22:00,
2013-06-23 17:44:00,69.0,32.0,-100.00,SSE,148,1.0,4.0,25,-99.99,,,-99.99,,2013-06-23 23:44:00,
2013-06-23 17:52:00,68.0,31.0,-100.00,SSE,153,2.0,5.0,25,-99.99,,,-99.99,,2013-06-23 23:52:00,
2013-06-23 18:01:00,69.0,31.0,-100.00,East,100,2.0,4.0,24,-99.99,,,-99.99,,2013-06-24 00:01:00,
2013-06-23 18:11:00,69.0,31.0,-100.00,East,100,2.0,4.0,24,-99.99,,,-99.99,,2013-06-24 00:11:00,
2013-06-23 18:22:00,67.0,29.0,-100.00,NNW,335,2.0,5.0,24,-99.99,,,-99.99,,2013-06-24 00:22:00,
2013-06-23 18:42:00,66.0,29.0,-100.00,NNW,327,2.0,4.0,25,-99.99,,,-99.99,,2013-06-24 00:42:00,
2013-06-23 18:52:00,66.0,30.0,-100.00,East,93,1.0,2.0,26,-99.99,,,-99.99,,2013-06-24 00:52:00,
2013-06-23 19:11:00,67.0,28.0,-100.00,NNW,345,2.0,3.0,23,-99.99,,,-99.99,,2013-06-24 01:11:00,
2013-06-23 19:22:00,68.0,32.0,-100.00,SSE,165,1.0,3.0,26,-99.99,,,-99.99,,2013-06-24 01:22:00,
2013-06-23 19:32:00,66.0,28.0,-100.00,NNW,336,3.0,7.0,24,-99.99,,,-99.99,,2013-06-24 01:32:00,
2013-06-23 19:42:00,66.0,28.0,-100.00,NNW,336,3.0,7.0,24,-99.99,,,-99.99,,2013-06-24 01:42:00,
2013-06-23 19:52:00,66.0,29.0,-100.00,WSW,254,1.0,3.0,25,-99.99,,,-99.99,,2013-06-24 01:52:00,
2013-06-23 20:01:00,65.0,31.0,-100.00,East,93,0.0,2.0,28,-99.99,,,-99.99,,2013-06-24 02:01:00,
2013-06-23 20:11:00,65.0,31.0,-100.00,East,93,0.0,2.0,28,-99.99,,,-99.99,,2013-06-24 02:11:00,
2013-06-23 20:22:00,65.0,32.0,-100.00,SW,215,1.0,2.0,29,-99.99,,,-99.99,,2013-06-24 02:22:00,
2013-06-23 20:33:00,64.0,30.0,-100.00,West,263,0.0,0.0,28,-99.99,,,-99.99,,2013-06-24 02:33:00,
2013-06-23 20:42:00,64.0,30.0,-100.00,West,263,0.0,0.0,28,-99.99,,,-99.99,,2013-06-24 02:42:00,
2013-06-23 20:53:00,63.0,32.0,-100.00,WNW,294,0.0,1.0,31,-99.99,,,-99.99,,2013-06-24 02:53:00,
2013-06-23 21:11:00,61.0,33.0,-100.00,West,260,0.0,0.0,35,-99.99,,,-99.99,,2013-06-24 03:11:00,
2013-06-23 21:22:00,59.0,34.0,-100.00,SSW,203,1.0,1.0,39,-99.99,,,-99.99,,2013-06-24 03:22:00,
2013-06-23 21:43:00,57.0,34.0,-100.00,SSW,204,1.0,2.0,41,-99.99,,,-99.99,,2013-06-24 03:43:00,
2013-06-23 21:53:00,55.0,32.0,-100.00,SSW,202,1.0,2.0,42,-99.99,,,-99.99,,2013-06-24 03:53:00,
2013-06-23 22:11:00,56.0,32.0,-100.00,South,185,1.0,2.0,40,-99.99,,,-99.99,,2013-06-24 04:11:00,
2013-06-23 22:22:00,55.0,33.0,-100.00,SSW,201,0.0,1.0,43,-99.99,,,-99.99,,2013-06-24 04:22:00,
2013-06-23 22:43:00,55.0,32.0,-100.00,SSW,192,1.0,2.0,41,-99.99,,,-99.99,,2013-06-24 04:43:00,
2013-06-23 22:52:00,55.0,31.0,-100.00,South,183,1.0,2.0,39,-99.99,,,-99.99,,2013-06-24 04:52:00,
2013-06-23 23:12:00,55.0,31.0,-100.00,SSW,194,1.0,2.0,40,-99.99,,,-99.99,,2013-06-24 05:12:00,
2013-06-23 23:22:00,54.0,31.0,-100.00,SSW,196,0.0,2.0,42,-99.99,,,-99.99,,2013-06-24 05:22:00,